This is the latest recevied weather packets stored in our database for station/object ON4CCM-13. If no packets are shown the sender has not sent any weather packets the latest 10 day(s).
| Time | Temp. | Humidity | Pressure | Rain* | Wind** | Luminosity | Snow |
|---|---|---|---|---|---|---|---|
| 1778179290 | 13.89° C | 51% | 1018.7 hPa | 0 mm | - | - | - |
| 1778178666 | 13.89° C | 50% | 1018.6 hPa | 0 mm | - | - | - |
| 1778178062 | 14.44° C | 50% | 1018.7 hPa | 0 mm | - | - | - |
| 1778164861 | 16.67° C | 26% | 1018.6 hPa | 0 mm | - | - | - |
| 1778163634 | 16.67° C | 28% | 1018.6 hPa | 0 mm | - | - | - |
| 1778160071 | 16.11° C | 34% | 1018.8 hPa | 0 mm | - | - | - |
| 1778159467 | 15.56° C | 31% | 1018.8 hPa | 0 mm | - | - | - |
| 1778152242 | 16.11° C | 29% | 1018.6 hPa | 0 mm | - | - | - |
| 1778148057 | 16.11° C | 38% | 1018.5 hPa | 0 mm | - | - | - |
| 1778145058 | 16.67° C | 39% | 1018.5 hPa | 0 mm | - | - | - |
| 1778143831 | 15.56° C | 42% | 1018.5 hPa | 0 mm | - | - | - |
| 1778140269 | 12.78° C | 59% | 1018.3 hPa | 0 mm | - | - | - |
| 1778139061 | 11.67° C | 61% | 1018.3 hPa | 0 mm | - | - | - |
| 1778137854 | 11.11° C | 66% | 1018.1 hPa | 0 mm | - | - | - |
| 1778134836 | 10° C | 72% | 1017.9 hPa | 0 mm | - | - | - |
| 1778133628 | 9.44° C | 75% | 1017.7 hPa | 0 mm | - | - | - |
| 1778127650 | 8.89° C | 83% | 1016.9 hPa | 0 mm | - | - | - |
| 1778125839 | 8.89° C | 82% | 1016.5 hPa | 0 mm | - | - | - |
| 1778120466 | 8.89° C | 78% | 1016.1 hPa | 0 mm | - | - | - |
| 1778118051 | 8.89° C | 77% | 1015.8 hPa | 0 mm | - | - | - |
| 1778115637 | 9.44° C | 75% | 1015.7 hPa | 0 mm | - | - | - |
| 1778113825 | 9.44° C | 74% | 1015.6 hPa | 0 mm | - | - | - |
| 1778111469 | 9.44° C | 72% | 1015.4 hPa | 0 mm | - | - | - |
| 1778109051 | 9.44° C | 70% | 1015.3 hPa | 0 mm | - | - | - |
| 1778103073 | 10.56° C | 65% | 1015 hPa | 0 mm | - | - | - |
* Rain latest hour (hover to see other rain measurements)
** Current wind speed in m/s (hover to see current wind gust speed)